sensor_id;sensor_type;location;lat;lon;timestamp;P1;durP1;ratioP1;P2;durP2;ratioP2
45650;SDS011;31365;48.858;8.530;2023-01-15T00:02:25;0.20;;;0.13;;
45650;SDS011;31365;48.858;8.530;2023-01-15T00:04:53;0.20;;;0.20;;
45650;SDS011;31365;48.858;8.530;2023-01-15T00:07:24;0.10;;;0.10;;
45650;SDS011;31365;48.858;8.530;2023-01-15T00:09:52;0.77;;;0.20;;
45650;SDS011;31365;48.858;8.530;2023-01-15T00:12:21;0.50;;;0.10;;
45650;SDS011;31365;48.858;8.530;2023-01-15T00:14:50;0.40;;;0.27;;
45650;SDS011;31365;48.858;8.530;2023-01-15T00:17:18;0.10;;;0.10;;
45650;SDS011;31365;48.858;8.530;2023-01-15T00:19:47;0.40;;;0.00;;
45650;SDS011;31365;48.858;8.530;2023-01-15T00:22:16;0.20;;;0.10;;
45650;SDS011;31365;48.858;8.530;2023-01-15T00:24:46;0.20;;;0.10;;
45650;SDS011;31365;48.858;8.530;2023-01-15T00:27:32;0.20;;;0.13;;
45650;SDS011;31365;48.858;8.530;2023-01-15T00:30:10;0.20;;;0.20;;
45650;SDS011;31365;48.858;8.530;2023-01-15T00:32:43;0.63;;;0.33;;
45650;SDS011;31365;48.858;8.530;2023-01-15T00:35:13;0.20;;;0.07;;
45650;SDS011;31365;48.858;8.530;2023-01-15T00:37:44;1.90;;;1.57;;
45650;SDS011;31365;48.858;8.530;2023-01-15T00:40:15;0.47;;;0.40;;
45650;SDS011;31365;48.858;8.530;2023-01-15T00:42:47;0.20;;;0.20;;
45650;SDS011;31365;48.858;8.530;2023-01-15T00:45:20;0.30;;;0.30;;
45650;SDS011;31365;48.858;8.530;2023-01-15T00:47:50;0.20;;;0.20;;
45650;SDS011;31365;48.858;8.530;2023-01-15T00:50:19;1.07;;;0.40;;
45650;SDS011;31365;48.858;8.530;2023-01-15T00:52:48;0.43;;;0.40;;
45650;SDS011;31365;48.858;8.530;2023-01-15T00:55:20;0.73;;;0.20;;
45650;SDS011;31365;48.858;8.530;2023-01-15T00:57:49;0.80;;;0.40;;
45650;SDS011;31365;48.858;8.530;2023-01-15T01:00:18;0.53;;;0.53;;
45650;SDS011;31365;48.858;8.530;2023-01-15T01:02:47;0.37;;;0.20;;
45650;SDS011;31365;48.858;8.530;2023-01-15T01:05:15;0.20;;;0.13;;
45650;SDS011;31365;48.858;8.530;2023-01-15T01:07:44;0.20;;;0.20;;
45650;SDS011;31365;48.858;8.530;2023-01-15T01:10:13;0.20;;;0.20;;
45650;SDS011;31365;48.858;8.530;2023-01-15T01:12:43;0.47;;;0.30;;
45650;SDS011;31365;48.858;8.530;2023-01-15T01:15:13;0.20;;;0.20;;
45650;SDS011;31365;48.858;8.530;2023-01-15T01:17:42;0.20;;;0.17;;
45650;SDS011;31365;48.858;8.530;2023-01-15T01:20:11;0.17;;;0.17;;
45650;SDS011;31365;48.858;8.530;2023-01-15T01:22:42;0.40;;;0.20;;
45650;SDS011;31365;48.858;8.530;2023-01-15T01:25:11;0.33;;;0.23;;
45650;SDS011;31365;48.858;8.530;2023-01-15T01:27:44;0.10;;;0.10;;
45650;SDS011;31365;48.858;8.530;2023-01-15T01:30:13;0.33;;;0.20;;
45650;SDS011;31365;48.858;8.530;2023-01-15T01:32:43;0.30;;;0.17;;
45650;SDS011;31365;48.858;8.530;2023-01-15T01:35:13;0.20;;;0.20;;
45650;SDS011;31365;48.858;8.530;2023-01-15T01:37:42;0.30;;;0.13;;
45650;SDS011;31365;48.858;8.530;2023-01-15T01:40:15;0.37;;;0.10;;
45650;SDS011;31365;48.858;8.530;2023-01-15T01:42:45;1.47;;;0.20;;
45650;SDS011;31365;48.858;8.530;2023-01-15T01:45:19;0.67;;;0.13;;
45650;SDS011;31365;48.858;8.530;2023-01-15T01:47:54;0.27;;;0.10;;
45650;SDS011;31365;48.858;8.530;2023-01-15T01:50:30;0.20;;;0.20;;
45650;SDS011;31365;48.858;8.530;2023-01-15T01:53:02;0.10;;;0.10;;
45650;SDS011;31365;48.858;8.530;2023-01-15T01:55:37;0.10;;;0.10;;
45650;SDS011;31365;48.858;8.530;2023-01-15T01:58:09;0.07;;;0.07;;
45650;SDS011;31365;48.858;8.530;2023-01-15T02:00:42;0.10;;;0.10;;
45650;SDS011;31365;48.858;8.530;2023-01-15T02:03:15;0.00;;;0.00;;
45650;SDS011;31365;48.858;8.530;2023-01-15T02:05:48;0.10;;;0.10;;
45650;SDS011;31365;48.858;8.530;2023-01-15T02:08:22;0.10;;;0.10;;
45650;SDS011;31365;48.858;8.530;2023-01-15T02:10:53;0.10;;;0.10;;
45650;SDS011;31365;48.858;8.530;2023-01-15T02:13:33;0.00;;;0.00;;
45650;SDS011;31365;48.858;8.530;2023-01-15T02:16:07;0.10;;;0.10;;
45650;SDS011;31365;48.858;8.530;2023-01-15T02:18:45;0.20;;;0.20;;
45650;SDS011;31365;48.858;8.530;2023-01-15T02:21:29;0.00;;;0.00;;
45650;SDS011;31365;48.858;8.530;2023-01-15T02:24:21;0.00;;;0.00;;
45650;SDS011;31365;48.858;8.530;2023-01-15T02:29:46;0.80;;;0.20;;
45650;SDS011;31365;48.858;8.530;2023-01-15T02:32:27;0.30;;;0.10;;
45650;SDS011;31365;48.858;8.530;2023-01-15T02:35:04;0.17;;;0.10;;
45650;SDS011;31365;48.858;8.530;2023-01-15T02:37:43;0.60;;;0.10;;
45650;SDS011;31365;48.858;8.530;2023-01-15T02:40:22;0.33;;;0.20;;
45650;SDS011;31365;48.858;8.530;2023-01-15T02:42:55;0.40;;;0.03;;
45650;SDS011;31365;48.858;8.530;2023-01-15T02:45:27;0.23;;;0.10;;
45650;SDS011;31365;48.858;8.530;2023-01-15T02:48:10;0.00;;;0.00;;
45650;SDS011;31365;48.858;8.530;2023-01-15T02:50:43;0.33;;;0.10;;
45650;SDS011;31365;48.858;8.530;2023-01-15T02:53:18;0.10;;;0.10;;
45650;SDS011;31365;48.858;8.530;2023-01-15T02:55:56;0.10;;;0.10;;
45650;SDS011;31365;48.858;8.530;2023-01-15T02:58:38;0.13;;;0.07;;
45650;SDS011;31365;48.858;8.530;2023-01-15T03:01:14;0.00;;;0.00;;
45650;SDS011;31365;48.858;8.530;2023-01-15T03:03:54;0.10;;;0.10;;
45650;SDS011;31365;48.858;8.530;2023-01-15T03:06:31;0.10;;;0.10;;
45650;SDS011;31365;48.858;8.530;2023-01-15T03:09:09;1.40;;;0.20;;
45650;SDS011;31365;48.858;8.530;2023-01-15T03:11:42;0.47;;;0.20;;
45650;SDS011;31365;48.858;8.530;2023-01-15T03:14:19;0.33;;;0.20;;
45650;SDS011;31365;48.858;8.530;2023-01-15T03:17:00;0.00;;;0.00;;
45650;SDS011;31365;48.858;8.530;2023-01-15T03:19:40;0.47;;;0.20;;
45650;SDS011;31365;48.858;8.530;2023-01-15T03:22:20;0.10;;;0.10;;
45650;SDS011;31365;48.858;8.530;2023-01-15T03:24:58;0.10;;;0.10;;
45650;SDS011;31365;48.858;8.530;2023-01-15T03:27:41;0.97;;;0.10;;
45650;SDS011;31365;48.858;8.530;2023-01-15T03:30:17;0.97;;;0.10;;
45650;SDS011;31365;48.858;8.530;2023-01-15T03:32:51;0.47;;;0.10;;
45650;SDS011;31365;48.858;8.530;2023-01-15T03:38:31;0.27;;;0.10;;
45650;SDS011;31365;48.858;8.530;2023-01-15T03:41:10;0.10;;;0.10;;
45650;SDS011;31365;48.858;8.530;2023-01-15T03:43:58;0.07;;;0.07;;
45650;SDS011;31365;48.858;8.530;2023-01-15T03:46:48;0.00;;;0.00;;
45650;SDS011;31365;48.858;8.530;2023-01-15T03:49:35;0.17;;;0.10;;
45650;SDS011;31365;48.858;8.530;2023-01-15T03:52:32;0.00;;;0.00;;
45650;SDS011;31365;48.858;8.530;2023-01-15T03:55:14;0.10;;;0.10;;
45650;SDS011;31365;48.858;8.530;2023-01-15T03:58:01;0.30;;;0.30;;
45650;SDS011;31365;48.858;8.530;2023-01-15T04:00:41;1.70;;;0.30;;
45650;SDS011;31365;48.858;8.530;2023-01-15T04:03:23;0.30;;;0.07;;
45650;SDS011;31365;48.858;8.530;2023-01-15T04:06:04;0.00;;;0.00;;
45650;SDS011;31365;48.858;8.530;2023-01-15T04:08:42;0.10;;;0.10;;
45650;SDS011;31365;48.858;8.530;2023-01-15T04:11:20;0.07;;;0.03;;
45650;SDS011;31365;48.858;8.530;2023-01-15T04:13:59;0.00;;;0.00;;
45650;SDS011;31365;48.858;8.530;2023-01-15T04:16:41;0.30;;;0.20;;
45650;SDS011;31365;48.858;8.530;2023-01-15T04:19:16;0.80;;;0.20;;
45650;SDS011;31365;48.858;8.530;2023-01-15T04:21:59;2.77;;;0.37;;
45650;SDS011;31365;48.858;8.530;2023-01-15T04:24:31;0.97;;;0.40;;
45650;SDS011;31365;48.858;8.530;2023-01-15T04:27:20;0.83;;;0.10;;
45650;SDS011;31365;48.858;8.530;2023-01-15T04:29:53;0.27;;;0.10;;
45650;SDS011;31365;48.858;8.530;2023-01-15T04:32:33;0.00;;;0.00;;
45650;SDS011;31365;48.858;8.530;2023-01-15T04:35:09;0.27;;;0.10;;
45650;SDS011;31365;48.858;8.530;2023-01-15T04:37:40;0.10;;;0.00;;
45650;SDS011;31365;48.858;8.530;2023-01-15T04:40:10;0.10;;;0.00;;
45650;SDS011;31365;48.858;8.530;2023-01-15T04:43:01;0.33;;;0.00;;
45650;SDS011;31365;48.858;8.530;2023-01-15T04:45:48;0.20;;;0.10;;
45650;SDS011;31365;48.858;8.530;2023-01-15T04:48:17;0.10;;;0.10;;
45650;SDS011;31365;48.858;8.530;2023-01-15T04:50:47;0.00;;;0.00;;
45650;SDS011;31365;48.858;8.530;2023-01-15T04:53:17;0.10;;;0.10;;
45650;SDS011;31365;48.858;8.530;2023-01-15T04:55:46;0.10;;;0.10;;
45650;SDS011;31365;48.858;8.530;2023-01-15T04:58:16;0.00;;;0.00;;
45650;SDS011;31365;48.858;8.530;2023-01-15T05:00:45;0.00;;;0.00;;
45650;SDS011;31365;48.858;8.530;2023-01-15T05:03:13;0.00;;;0.00;;
45650;SDS011;31365;48.858;8.530;2023-01-15T05:05:42;0.27;;;0.20;;
45650;SDS011;31365;48.858;8.530;2023-01-15T05:08:13;0.20;;;0.20;;
45650;SDS011;31365;48.858;8.530;2023-01-15T05:10:44;0.13;;;0.13;;
45650;SDS011;31365;48.858;8.530;2023-01-15T05:13:13;0.10;;;0.10;;
45650;SDS011;31365;48.858;8.530;2023-01-15T05:15:42;0.17;;;0.10;;
45650;SDS011;31365;48.858;8.530;2023-01-15T05:18:12;0.10;;;0.10;;
45650;SDS011;31365;48.858;8.530;2023-01-15T05:20:44;0.33;;;0.33;;
45650;SDS011;31365;48.858;8.530;2023-01-15T05:23:15;0.20;;;0.20;;
45650;SDS011;31365;48.858;8.530;2023-01-15T05:25:44;0.10;;;0.10;;
45650;SDS011;31365;48.858;8.530;2023-01-15T05:28:13;0.00;;;0.00;;
45650;SDS011;31365;48.858;8.530;2023-01-15T05:30:42;0.00;;;0.00;;
45650;SDS011;31365;48.858;8.530;2023-01-15T05:33:11;0.10;;;0.10;;
45650;SDS011;31365;48.858;8.530;2023-01-15T05:35:41;0.00;;;0.00;;
45650;SDS011;31365;48.858;8.530;2023-01-15T05:38:10;0.00;;;0.00;;
45650;SDS011;31365;48.858;8.530;2023-01-15T05:40:44;0.20;;;0.10;;
45650;SDS011;31365;48.858;8.530;2023-01-15T05:43:13;0.77;;;0.40;;
45650;SDS011;31365;48.858;8.530;2023-01-15T05:45:43;0.00;;;0.00;;
45650;SDS011;31365;48.858;8.530;2023-01-15T05:48:12;0.00;;;0.00;;
45650;SDS011;31365;48.858;8.530;2023-01-15T05:50:42;0.10;;;0.10;;
45650;SDS011;31365;48.858;8.530;2023-01-15T05:53:11;0.20;;;0.20;;
45650;SDS011;31365;48.858;8.530;2023-01-15T05:55:40;0.30;;;0.30;;
45650;SDS011;31365;48.858;8.530;2023-01-15T05:58:16;0.60;;;0.43;;
45650;SDS011;31365;48.858;8.530;2023-01-15T06:00:45;0.20;;;0.20;;
45650;SDS011;31365;48.858;8.530;2023-01-15T06:03:15;0.50;;;0.50;;
45650;SDS011;31365;48.858;8.530;2023-01-15T06:05:49;0.70;;;0.50;;
45650;SDS011;31365;48.858;8.530;2023-01-15T06:08:18;0.40;;;0.30;;
45650;SDS011;31365;48.858;8.530;2023-01-15T06:10:49;0.90;;;0.30;;
45650;SDS011;31365;48.858;8.530;2023-01-15T06:13:18;0.63;;;0.60;;
45650;SDS011;31365;48.858;8.530;2023-01-15T06:15:47;0.00;;;0.00;;
45650;SDS011;31365;48.858;8.530;2023-01-15T06:18:16;1.23;;;0.17;;
45650;SDS011;31365;48.858;8.530;2023-01-15T06:20:45;0.20;;;0.20;;
45650;SDS011;31365;48.858;8.530;2023-01-15T06:23:16;0.20;;;0.20;;
45650;SDS011;31365;48.858;8.530;2023-01-15T06:25:49;0.57;;;0.20;;
45650;SDS011;31365;48.858;8.530;2023-01-15T06:28:19;0.30;;;0.10;;
45650;SDS011;31365;48.858;8.530;2023-01-15T06:30:48;2.00;;;0.43;;
45650;SDS011;31365;48.858;8.530;2023-01-15T06:33:19;0.20;;;0.20;;
45650;SDS011;31365;48.858;8.530;2023-01-15T06:35:48;0.83;;;0.63;;
45650;SDS011;31365;48.858;8.530;2023-01-15T06:38:18;0.10;;;0.10;;
45650;SDS011;31365;48.858;8.530;2023-01-15T06:40:52;0.10;;;0.10;;
45650;SDS011;31365;48.858;8.530;2023-01-15T06:43:22;1.60;;;0.20;;
45650;SDS011;31365;48.858;8.530;2023-01-15T06:46:08;1.13;;;0.17;;
45650;SDS011;31365;48.858;8.530;2023-01-15T06:48:57;0.47;;;0.00;;
45650;SDS011;31365;48.858;8.530;2023-01-15T06:51:29;2.27;;;0.40;;
45650;SDS011;31365;48.858;8.530;2023-01-15T06:54:01;0.10;;;0.00;;
45650;SDS011;31365;48.858;8.530;2023-01-15T06:56:38;0.73;;;0.10;;
45650;SDS011;31365;48.858;8.530;2023-01-15T06:59:11;0.10;;;0.10;;
45650;SDS011;31365;48.858;8.530;2023-01-15T07:01:41;0.00;;;0.00;;
45650;SDS011;31365;48.858;8.530;2023-01-15T07:04:11;0.30;;;0.13;;
45650;SDS011;31365;48.858;8.530;2023-01-15T07:06:43;0.87;;;0.30;;
45650;SDS011;31365;48.858;8.530;2023-01-15T07:09:13;0.40;;;0.33;;
45650;SDS011;31365;48.858;8.530;2023-01-15T07:11:47;3.00;;;0.37;;
45650;SDS011;31365;48.858;8.530;2023-01-15T07:14:17;0.10;;;0.10;;
45650;SDS011;31365;48.858;8.530;2023-01-15T07:16:53;0.60;;;0.07;;
45650;SDS011;31365;48.858;8.530;2023-01-15T07:19:26;0.10;;;0.10;;
45650;SDS011;31365;48.858;8.530;2023-01-15T07:21:56;0.20;;;0.10;;
45650;SDS011;31365;48.858;8.530;2023-01-15T07:24:26;0.40;;;0.40;;
45650;SDS011;31365;48.858;8.530;2023-01-15T07:26:58;0.40;;;0.30;;
45650;SDS011;31365;48.858;8.530;2023-01-15T07:29:29;0.20;;;0.20;;
45650;SDS011;31365;48.858;8.530;2023-01-15T07:32:00;0.13;;;0.00;;
45650;SDS011;31365;48.858;8.530;2023-01-15T07:34:34;0.10;;;0.10;;
45650;SDS011;31365;48.858;8.530;2023-01-15T07:37:07;0.20;;;0.10;;
45650;SDS011;31365;48.858;8.530;2023-01-15T07:39:37;0.20;;;0.10;;
45650;SDS011;31365;48.858;8.530;2023-01-15T07:42:11;0.00;;;0.00;;
45650;SDS011;31365;48.858;8.530;2023-01-15T07:44:59;0.17;;;0.17;;
45650;SDS011;31365;48.858;8.530;2023-01-15T07:47:49;0.47;;;0.37;;
45650;SDS011;31365;48.858;8.530;2023-01-15T07:50:38;1.27;;;0.10;;
45650;SDS011;31365;48.858;8.530;2023-01-15T07:53:10;4.00;;;2.87;;
45650;SDS011;31365;48.858;8.530;2023-01-15T07:55:42;2.23;;;2.03;;
45650;SDS011;31365;48.858;8.530;2023-01-15T07:58:15;0.40;;;0.40;;
45650;SDS011;31365;48.858;8.530;2023-01-15T08:00:45;0.77;;;0.20;;
45650;SDS011;31365;48.858;8.530;2023-01-15T08:03:17;1.57;;;0.60;;
45650;SDS011;31365;48.858;8.530;2023-01-15T08:05:47;0.43;;;0.30;;
45650;SDS011;31365;48.858;8.530;2023-01-15T08:08:24;0.30;;;0.20;;
45650;SDS011;31365;48.858;8.530;2023-01-15T08:10:59;0.10;;;0.10;;
45650;SDS011;31365;48.858;8.530;2023-01-15T08:13:48;0.30;;;0.30;;
45650;SDS011;31365;48.858;8.530;2023-01-15T08:16:34;0.57;;;0.47;;
45650;SDS011;31365;48.858;8.530;2023-01-15T08:19:05;1.23;;;1.13;;
45650;SDS011;31365;48.858;8.530;2023-01-15T08:21:33;1.17;;;1.00;;
45650;SDS011;31365;48.858;8.530;2023-01-15T08:24:03;1.13;;;1.10;;
45650;SDS011;31365;48.858;8.530;2023-01-15T08:26:32;0.70;;;0.70;;
45650;SDS011;31365;48.858;8.530;2023-01-15T08:29:02;1.03;;;0.93;;
45650;SDS011;31365;48.858;8.530;2023-01-15T08:31:31;0.70;;;0.70;;
45650;SDS011;31365;48.858;8.530;2023-01-15T08:34:01;1.10;;;1.00;;
45650;SDS011;31365;48.858;8.530;2023-01-15T08:36:30;1.60;;;1.43;;
45650;SDS011;31365;48.858;8.530;2023-01-15T08:38:59;1.00;;;0.90;;
45650;SDS011;31365;48.858;8.530;2023-01-15T08:41:28;0.60;;;0.60;;
45650;SDS011;31365;48.858;8.530;2023-01-15T08:43:58;0.57;;;0.57;;
45650;SDS011;31365;48.858;8.530;2023-01-15T08:46:28;0.43;;;0.43;;
45650;SDS011;31365;48.858;8.530;2023-01-15T08:48:57;0.73;;;0.73;;
45650;SDS011;31365;48.858;8.530;2023-01-15T08:51:26;1.23;;;0.53;;
45650;SDS011;31365;48.858;8.530;2023-01-15T08:53:55;0.37;;;0.23;;
45650;SDS011;31365;48.858;8.530;2023-01-15T08:56:24;1.17;;;1.10;;
45650;SDS011;31365;48.858;8.530;2023-01-15T08:58:53;1.00;;;0.87;;
45650;SDS011;31365;48.858;8.530;2023-01-15T09:01:22;0.50;;;0.40;;
45650;SDS011;31365;48.858;8.530;2023-01-15T09:03:54;0.50;;;0.50;;
45650;SDS011;31365;48.858;8.530;2023-01-15T09:06:26;0.53;;;0.50;;
45650;SDS011;31365;48.858;8.530;2023-01-15T09:08:55;0.20;;;0.20;;
45650;SDS011;31365;48.858;8.530;2023-01-15T09:11:26;1.07;;;0.43;;
45650;SDS011;31365;48.858;8.530;2023-01-15T09:13:55;0.30;;;0.30;;
45650;SDS011;31365;48.858;8.530;2023-01-15T09:16:25;0.73;;;0.40;;
45650;SDS011;31365;48.858;8.530;2023-01-15T09:18:58;3.70;;;1.07;;
45650;SDS011;31365;48.858;8.530;2023-01-15T09:21:28;0.57;;;0.50;;
45650;SDS011;31365;48.858;8.530;2023-01-15T09:23:57;0.83;;;0.63;;
45650;SDS011;31365;48.858;8.530;2023-01-15T09:26:27;0.57;;;0.57;;
45650;SDS011;31365;48.858;8.530;2023-01-15T09:29:07;0.77;;;0.50;;
45650;SDS011;31365;48.858;8.530;2023-01-15T09:31:40;0.23;;;0.23;;
45650;SDS011;31365;48.858;8.530;2023-01-15T09:34:11;0.33;;;0.33;;
45650;SDS011;31365;48.858;8.530;2023-01-15T09:36:40;0.50;;;0.43;;
45650;SDS011;31365;48.858;8.530;2023-01-15T09:39:09;0.60;;;0.50;;
45650;SDS011;31365;48.858;8.530;2023-01-15T09:41:52;1.17;;;0.77;;
45650;SDS011;31365;48.858;8.530;2023-01-15T09:44:43;3.17;;;1.10;;
45650;SDS011;31365;48.858;8.530;2023-01-15T09:47:38;0.10;;;0.10;;
45650;SDS011;31365;48.858;8.530;2023-01-15T09:50:22;0.23;;;0.23;;
45650;SDS011;31365;48.858;8.530;2023-01-15T09:56:09;1.00;;;0.90;;
45650;SDS011;31365;48.858;8.530;2023-01-15T09:58:48;0.80;;;0.80;;
45650;SDS011;31365;48.858;8.530;2023-01-15T10:01:23;0.57;;;0.57;;
45650;SDS011;31365;48.858;8.530;2023-01-15T10:03:58;0.67;;;0.43;;
45650;SDS011;31365;48.858;8.530;2023-01-15T10:06:42;0.30;;;0.30;;
45650;SDS011;31365;48.858;8.530;2023-01-15T10:09:24;0.73;;;0.60;;
45650;SDS011;31365;48.858;8.530;2023-01-15T10:12:06;0.60;;;0.60;;
45650;SDS011;31365;48.858;8.530;2023-01-15T10:15:05;1.57;;;1.10;;
45650;SDS011;31365;48.858;8.530;2023-01-15T10:17:48;0.60;;;0.60;;
45650;SDS011;31365;48.858;8.530;2023-01-15T10:20:27;0.80;;;0.80;;
45650;SDS011;31365;48.858;8.530;2023-01-15T10:23:49;0.47;;;0.47;;
45650;SDS011;31365;48.858;8.530;2023-01-15T10:26:34;0.90;;;0.77;;
45650;SDS011;31365;48.858;8.530;2023-01-15T10:29:11;0.67;;;0.60;;
45650;SDS011;31365;48.858;8.530;2023-01-15T10:31:52;3.70;;;2.10;;
45650;SDS011;31365;48.858;8.530;2023-01-15T10:34:48;3.07;;;2.33;;
45650;SDS011;31365;48.858;8.530;2023-01-15T10:37:46;2.43;;;2.00;;
45650;SDS011;31365;48.858;8.530;2023-01-15T10:44:00;2.37;;;1.50;;
45650;SDS011;31365;48.858;8.530;2023-01-15T10:46:44;1.73;;;0.90;;
45650;SDS011;31365;48.858;8.530;2023-01-15T10:49:25;0.70;;;0.70;;
45650;SDS011;31365;48.858;8.530;2023-01-15T10:52:01;0.77;;;0.77;;
45650;SDS011;31365;48.858;8.530;2023-01-15T10:54:37;0.60;;;0.60;;
45650;SDS011;31365;48.858;8.530;2023-01-15T10:57:19;1.27;;;1.10;;
45650;SDS011;31365;48.858;8.530;2023-01-15T11:00:09;1.13;;;1.03;;
45650;SDS011;31365;48.858;8.530;2023-01-15T11:02:41;0.57;;;0.57;;
45650;SDS011;31365;48.858;8.530;2023-01-15T11:05:15;1.50;;;0.83;;
45650;SDS011;31365;48.858;8.530;2023-01-15T11:07:48;1.10;;;0.90;;
45650;SDS011;31365;48.858;8.530;2023-01-15T11:10:40;0.87;;;0.80;;
45650;SDS011;31365;48.858;8.530;2023-01-15T11:13:14;2.20;;;1.07;;
45650;SDS011;31365;48.858;8.530;2023-01-15T11:16:26;0.73;;;0.73;;
45650;SDS011;31365;48.858;8.530;2023-01-15T11:19:17;1.00;;;0.73;;
45650;SDS011;31365;48.858;8.530;2023-01-15T11:22:11;0.60;;;0.60;;
45650;SDS011;31365;48.858;8.530;2023-01-15T11:24:45;1.10;;;0.80;;
45650;SDS011;31365;48.858;8.530;2023-01-15T11:27:24;1.60;;;0.70;;
45650;SDS011;31365;48.858;8.530;2023-01-15T11:30:01;0.50;;;0.50;;
45650;SDS011;31365;48.858;8.530;2023-01-15T11:32:45;0.37;;;0.30;;
45650;SDS011;31365;48.858;8.530;2023-01-15T11:35:25;2.63;;;1.70;;
45650;SDS011;31365;48.858;8.530;2023-01-15T11:38:10;3.60;;;2.50;;
45650;SDS011;31365;48.858;8.530;2023-01-15T11:40:49;2.90;;;2.03;;
45650;SDS011;31365;48.858;8.530;2023-01-15T11:43:25;1.47;;;1.00;;
45650;SDS011;31365;48.858;8.530;2023-01-15T11:46:27;1.80;;;1.07;;
45650;SDS011;31365;48.858;8.530;2023-01-15T11:49:18;3.57;;;1.17;;
45650;SDS011;31365;48.858;8.530;2023-01-15T11:52:09;0.80;;;0.80;;
45650;SDS011;31365;48.858;8.530;2023-01-15T11:54:45;2.50;;;1.83;;
45650;SDS011;31365;48.858;8.530;2023-01-15T11:57:25;7.00;;;3.40;;
45650;SDS011;31365;48.858;8.530;2023-01-15T11:59:58;5.77;;;2.77;;
45650;SDS011;31365;48.858;8.530;2023-01-15T12:02:39;11.37;;;4.97;;
45650;SDS011;31365;48.858;8.530;2023-01-15T12:05:18;2.43;;;1.20;;
45650;SDS011;31365;48.858;8.530;2023-01-15T12:07:56;1.53;;;1.13;;
45650;SDS011;31365;48.858;8.530;2023-01-15T12:10:28;1.43;;;0.80;;
45650;SDS011;31365;48.858;8.530;2023-01-15T12:13:26;2.77;;;0.93;;
45650;SDS011;31365;48.858;8.530;2023-01-15T12:16:16;3.40;;;1.00;;
45650;SDS011;31365;48.858;8.530;2023-01-15T12:18:58;4.00;;;1.30;;
45650;SDS011;31365;48.858;8.530;2023-01-15T12:21:45;1.97;;;0.70;;
45650;SDS011;31365;48.858;8.530;2023-01-15T12:25:16;1.27;;;0.60;;
45650;SDS011;31365;48.858;8.530;2023-01-15T12:27:58;2.60;;;0.90;;
45650;SDS011;31365;48.858;8.530;2023-01-15T12:30:37;2.50;;;0.77;;
45650;SDS011;31365;48.858;8.530;2023-01-15T12:33:20;1.53;;;0.90;;
45650;SDS011;31365;48.858;8.530;2023-01-15T12:36:05;1.23;;;0.90;;
45650;SDS011;31365;48.858;8.530;2023-01-15T13:31:45;6.57;;;2.57;;
45650;SDS011;31365;48.858;8.530;2023-01-15T13:34:33;3.57;;;1.67;;
45650;SDS011;31365;48.858;8.530;2023-01-15T13:37:19;2.03;;;1.73;;
45650;SDS011;31365;48.858;8.530;2023-01-15T13:39:57;1.10;;;0.90;;
45650;SDS011;31365;48.858;8.530;2023-01-15T13:42:37;3.23;;;1.53;;
45650;SDS011;31365;48.858;8.530;2023-01-15T13:45:25;3.97;;;2.30;;
45650;SDS011;31365;48.858;8.530;2023-01-15T13:48:11;3.40;;;2.80;;
45650;SDS011;31365;48.858;8.530;2023-01-15T13:50:50;3.33;;;2.07;;
45650;SDS011;31365;48.858;8.530;2023-01-15T13:53:25;1.30;;;0.93;;
45650;SDS011;31365;48.858;8.530;2023-01-15T13:55:58;2.03;;;0.83;;
45650;SDS011;31365;48.858;8.530;2023-01-15T13:58:33;2.27;;;1.10;;
45650;SDS011;31365;48.858;8.530;2023-01-15T14:01:20;3.00;;;1.20;;
45650;SDS011;31365;48.858;8.530;2023-01-15T14:03:57;4.00;;;2.47;;
45650;SDS011;31365;48.858;8.530;2023-01-15T14:06:40;7.80;;;1.80;;
45650;SDS011;31365;48.858;8.530;2023-01-15T14:09:12;5.30;;;1.23;;
45650;SDS011;31365;48.858;8.530;2023-01-15T14:11:58;2.53;;;1.07;;
45650;SDS011;31365;48.858;8.530;2023-01-15T14:14:46;2.67;;;1.13;;
45650;SDS011;31365;48.858;8.530;2023-01-15T14:20:54;4.33;;;1.30;;
45650;SDS011;31365;48.858;8.530;2023-01-15T14:23:43;2.60;;;1.30;;
45650;SDS011;31365;48.858;8.530;2023-01-15T14:26:38;3.77;;;1.33;;
45650;SDS011;31365;48.858;8.530;2023-01-15T14:29:30;2.43;;;1.50;;
45650;SDS011;31365;48.858;8.530;2023-01-15T14:32:41;2.97;;;0.90;;
45650;SDS011;31365;48.858;8.530;2023-01-15T14:35:27;1.63;;;0.87;;
45650;SDS011;31365;48.858;8.530;2023-01-15T14:38:05;2.87;;;0.80;;
45650;SDS011;31365;48.858;8.530;2023-01-15T14:40:50;1.27;;;0.70;;
45650;SDS011;31365;48.858;8.530;2023-01-15T14:43:27;4.70;;;2.90;;
45650;SDS011;31365;48.858;8.530;2023-01-15T14:46:07;3.67;;;1.57;;
45650;SDS011;31365;48.858;8.530;2023-01-15T14:48:44;4.73;;;2.20;;
45650;SDS011;31365;48.858;8.530;2023-01-15T14:51:17;9.27;;;5.23;;
45650;SDS011;31365;48.858;8.530;2023-01-15T14:53:57;5.33;;;3.63;;
45650;SDS011;31365;48.858;8.530;2023-01-15T14:56:37;2.87;;;1.70;;
45650;SDS011;31365;48.858;8.530;2023-01-15T14:59:24;4.60;;;1.50;;
45650;SDS011;31365;48.858;8.530;2023-01-15T15:02:00;3.37;;;1.50;;
45650;SDS011;31365;48.858;8.530;2023-01-15T15:04:42;2.93;;;1.47;;
45650;SDS011;31365;48.858;8.530;2023-01-15T15:07:21;1.43;;;1.00;;
45650;SDS011;31365;48.858;8.530;2023-01-15T15:10:22;2.07;;;1.13;;
45650;SDS011;31365;48.858;8.530;2023-01-15T15:13:01;1.47;;;0.97;;
45650;SDS011;31365;48.858;8.530;2023-01-15T15:15:46;1.93;;;0.87;;
45650;SDS011;31365;48.858;8.530;2023-01-15T15:18:29;2.03;;;0.80;;
45650;SDS011;31365;48.858;8.530;2023-01-15T15:21:09;1.03;;;0.70;;
45650;SDS011;31365;48.858;8.530;2023-01-15T15:23:50;2.37;;;1.20;;
45650;SDS011;31365;48.858;8.530;2023-01-15T15:26:39;3.37;;;1.60;;
45650;SDS011;31365;48.858;8.530;2023-01-15T15:29:10;1.60;;;1.00;;
45650;SDS011;31365;48.858;8.530;2023-01-15T15:31:49;4.80;;;1.80;;
45650;SDS011;31365;48.858;8.530;2023-01-15T15:34:39;2.73;;;1.53;;
45650;SDS011;31365;48.858;8.530;2023-01-15T15:37:15;2.30;;;1.23;;
45650;SDS011;31365;48.858;8.530;2023-01-15T15:39:51;5.40;;;2.10;;
45650;SDS011;31365;48.858;8.530;2023-01-15T15:42:31;3.67;;;1.70;;
45650;SDS011;31365;48.858;8.530;2023-01-15T15:45:31;2.97;;;1.63;;
45650;SDS011;31365;48.858;8.530;2023-01-15T15:48:21;1.20;;;0.83;;
45650;SDS011;31365;48.858;8.530;2023-01-15T15:51:35;2.47;;;0.90;;
45650;SDS011;31365;48.858;8.530;2023-01-15T15:54:28;2.33;;;1.10;;
45650;SDS011;31365;48.858;8.530;2023-01-15T15:57:02;2.80;;;1.50;;
45650;SDS011;31365;48.858;8.530;2023-01-15T15:59:45;3.57;;;1.90;;
45650;SDS011;31365;48.858;8.530;2023-01-15T16:02:23;2.77;;;1.50;;
45650;SDS011;31365;48.858;8.530;2023-01-15T16:05:17;1.80;;;1.10;;
45650;SDS011;31365;48.858;8.530;2023-01-15T16:07:54;3.10;;;1.07;;
45650;SDS011;31365;48.858;8.530;2023-01-15T16:10:37;3.13;;;1.50;;
45650;SDS011;31365;48.858;8.530;2023-01-15T16:13:11;2.40;;;1.20;;
45650;SDS011;31365;48.858;8.530;2023-01-15T16:15:54;1.53;;;0.97;;
45650;SDS011;31365;48.858;8.530;2023-01-15T16:18:30;3.13;;;1.10;;
45650;SDS011;31365;48.858;8.530;2023-01-15T16:21:06;2.37;;;1.43;;
45650;SDS011;31365;48.858;8.530;2023-01-15T16:23:41;3.13;;;1.13;;
45650;SDS011;31365;48.858;8.530;2023-01-15T16:26:12;1.07;;;0.97;;
45650;SDS011;31365;48.858;8.530;2023-01-15T16:28:49;1.00;;;0.80;;
45650;SDS011;31365;48.858;8.530;2023-01-15T16:31:26;3.03;;;1.20;;
45650;SDS011;31365;48.858;8.530;2023-01-15T16:34:11;2.70;;;1.50;;
45650;SDS011;31365;48.858;8.530;2023-01-15T16:36:52;4.00;;;1.93;;
45650;SDS011;31365;48.858;8.530;2023-01-15T16:39:24;2.23;;;1.53;;
45650;SDS011;31365;48.858;8.530;2023-01-15T16:41:59;4.60;;;1.70;;
45650;SDS011;31365;48.858;8.530;2023-01-15T16:44:50;5.30;;;1.60;;
45650;SDS011;31365;48.858;8.530;2023-01-15T16:47:27;4.63;;;2.10;;
45650;SDS011;31365;48.858;8.530;2023-01-15T16:52:58;4.97;;;2.00;;
45650;SDS011;31365;48.858;8.530;2023-01-15T16:55:34;2.73;;;1.30;;
45650;SDS011;31365;48.858;8.530;2023-01-15T16:58:14;1.63;;;1.17;;
45650;SDS011;31365;48.858;8.530;2023-01-15T17:00:48;3.53;;;2.70;;